Time;durP1;ratioP1;P1;durP2;ratioP2;P2;SDS_P1;SDS_P2;PMS_P1;PMS_P2;Temp;Humidity;BMP_temperature;BMP_pressure;BME280_temperature;BME280_humidity;BME280_pressure;Samples;Min_cycle;Max_cycle;Signal;HPM_P1;HPM_P2
2022/02/06 00:03:58;;;;;;;68.13;63.33;;;;;;;10.92;100.00;101200.08;1996822;71;33330;-74
2022/02/06 00:09:42;;;;;;;66.23;62.00;;;;;;;10.96;100.00;101194.78;2000137;71;32802;-70
2022/02/06 00:15:27;;;;;;;70.20;65.77;;;;;;;10.93;100.00;101160.61;2013141;71;33320;-71
2022/02/06 00:21:19;;;;;;;70.40;65.73;;;;;;;10.90;100.00;101167.58;2006799;70;33034;-70
2022/02/06 00:27:06;;;;;;;71.93;67.50;;;;;;;10.91;100.00;101159.49;2014156;71;33347;-71
2022/02/06 00:32:52;;;;;;;71.87;67.23;;;;;;;10.91;100.00;101156.71;2015753;71;32838;-75
2022/02/06 00:44:41;;;;;;;68.60;64.40;;;;;;;10.91;100.00;101121.97;1965353;72;32988;-71
2022/02/06 00:50:25;;;;;;;69.60;64.93;;;;;;;10.95;100.00;101131.41;2016642;70;33300;-70
2022/02/06 00:56:11;;;;;;;71.00;66.70;;;;;;;10.88;100.00;101130.05;2011073;71;33265;-73
2022/02/06 01:01:55;;;;;;;73.40;68.70;;;;;;;10.77;100.00;101129.24;2008892;71;33313;-75
2022/02/06 01:07:39;;;;;;;75.87;70.67;;;;;;;10.63;100.00;101119.80;1991123;71;32982;-71
2022/02/06 01:13:30;;;;;;;72.57;67.57;;;;;;;10.58;100.00;101098.97;2006810;71;33397;-75
2022/02/06 01:19:15;;;;;;;76.93;71.90;;;;;;;10.58;100.00;101103.69;2007383;71;32847;-76
2022/02/06 01:25:03;;;;;;;75.87;70.77;;;;;;;10.44;100.00;101090.91;2007298;71;33329;-76
2022/02/06 01:30:51;;;;;;;74.87;69.80;;;;;;;10.43;100.00;101099.83;2014794;70;33285;-72
2022/02/06 01:36:39;;;;;;;74.20;69.17;;;;;;;10.39;100.00;101088.16;2014835;71;33359;-75
2022/02/06 01:42:26;;;;;;;80.30;74.50;;;;;;;10.41;100.00;101068.71;2008969;71;32900;-70
2022/02/06 02:31:14;;;;;;;75.57;70.47;;;;;;;10.29;100.00;101007.64;2015944;71;32826;-75
2022/02/06 02:43:07;;;;;;;72.57;67.30;;;;;;;10.33;100.00;100998.47;2012486;71;33005;-71
2022/02/06 02:48:49;;;;;;;75.03;69.73;;;;;;;10.17;100.00;100961.30;2005213;71;32779;-75
2022/02/06 02:54:36;;;;;;;75.00;69.70;;;;;;;10.27;100.00;100973.78;2014550;71;33339;-75
2022/02/06 03:00:30;;;;;;;73.60;68.50;;;;;;;10.35;100.00;100948.22;1994954;71;32835;-77
2022/02/06 03:06:10;;;;;;;74.17;68.90;;;;;;;10.41;100.00;100952.08;2004873;70;32903;-74
2022/02/06 03:11:54;;;;;;;73.00;67.80;;;;;;;10.42;100.00;100946.81;2016359;71;33572;-70
2022/02/06 03:17:45;;;;;;;76.30;70.83;;;;;;;10.38;100.00;100912.39;2009367;71;33270;-70
2022/02/06 03:23:25;;;;;;;77.57;72.17;;;;;;;10.38;100.00;100929.05;2003670;71;32909;-70
2022/02/06 03:29:09;;;;;;;81.17;75.27;;;;;;;10.37;100.00;100900.17;2016374;71;32843;-70
2022/02/06 03:34:53;;;;;;;74.77;69.53;;;;;;;10.37;100.00;100885.73;2016420;71;33311;-71
2022/02/06 03:40:42;;;;;;;74.80;69.60;;;;;;;10.46;100.00;100865.15;2005427;71;33284;-75
2022/02/06 03:46:29;;;;;;;72.80;67.50;;;;;;;10.41;100.00;100862.39;2000467;71;32959;-70
2022/02/06 03:52:13;;;;;;;78.47;73.27;;;;;;;10.42;100.00;100827.95;2017560;71;32894;-69
2022/02/06 03:57:58;;;;;;;76.53;71.23;;;;;;;10.48;100.00;100822.67;2015869;71;32836;-70
2022/02/06 04:03:45;;;;;;;74.27;68.90;;;;;;;10.45;100.00;100816.27;1997922;71;33071;-75
2022/02/06 04:09:35;;;;;;;71.53;66.23;;;;;;;10.46;100.00;100809.05;2012557;71;32967;-70
2022/02/06 04:15:22;;;;;;;72.57;67.10;;;;;;;10.35;100.00;100778.30;2000017;71;32967;-71
2022/02/06 04:21:05;;;;;;;76.33;70.93;;;;;;;10.36;100.00;100773.55;1940333;74;33497;-74
2022/02/06 04:26:51;;;;;;;68.33;63.33;;;;;;;10.36;100.00;100763.28;2004065;71;32775;-71
2022/02/06 04:32:35;;;;;;;70.33;64.90;;;;;;;10.40;100.00;100760.76;2010945;71;32837;-75
2022/02/06 04:38:40;;;;;;;72.83;67.67;;;;;;;10.25;100.00;100738.64;2012067;71;32840;-70
2022/02/06 05:27:10;;;;;;;68.20;62.93;;;;;;;10.34;100.00;100632.27;2002274;71;33364;-75
2022/02/06 05:32:58;;;;;;;72.00;66.57;;;;;;;10.35;100.00;100630.33;1994601;71;32887;-74
2022/02/06 05:38:33;;;;;;;67.47;62.27;;;;;;;10.36;100.00;100610.58;2016386;71;32951;-70
2022/02/06 05:44:17;;;;;;;66.20;61.07;;;;;;;10.40;100.00;100611.66;2009043;71;32843;-74
2022/02/06 05:50:03;;;;;;;64.63;59.20;;;;;;;10.39;100.00;100586.98;2010378;70;32888;-70
2022/02/06 05:55:47;;;;;;;66.47;61.10;;;;;;;10.42;100.00;100570.56;1985063;71;32077;-75
2022/02/06 06:01:33;;;;;;;71.40;66.03;;;;;;;10.37;100.00;100573.93;1997358;71;33315;-70
2022/02/06 06:07:17;;;;;;;70.20;64.67;;;;;;;10.40;100.00;100548.36;2002232;70;32766;-75
2022/02/06 06:13:02;;;;;;;68.50;63.20;;;;;;;10.45;100.00;100558.86;2016364;71;32899;-75
2022/02/06 06:18:47;;;;;;;69.57;64.47;;;;;;;10.46;100.00;100547.20;2005213;71;32920;-70
2022/02/06 06:24:40;;;;;;;68.40;63.10;;;;;;;10.42;100.00;100537.24;2012894;71;32857;-71
2022/02/06 06:30:21;;;;;;;70.80;65.60;;;;;;;10.47;100.00;100525.27;2003670;71;33453;-70
2022/02/06 06:36:06;;;;;;;68.23;62.80;;;;;;;10.48;100.00;100511.66;2014700;71;33287;-73
2022/02/06 06:41:50;;;;;;;67.30;62.20;;;;;;;10.52;100.00;100500.22;2002291;71;32753;-70
2022/02/06 06:47:34;;;;;;;66.70;61.37;;;;;;;10.49;100.00;100475.80;2003611;71;32897;-69
2022/02/06 06:53:22;;;;;;;73.63;68.27;;;;;;;10.48;100.00;100452.75;1994840;71;33240;-74
2022/02/06 06:59:24;;;;;;;73.30;67.93;;;;;;;10.54;100.00;100439.65;2005365;71;32888;-70
2022/02/06 07:04:57;;;;;;;70.20;65.03;;;;;;;10.51;100.00;100399.98;2003610;71;33483;-69
2022/02/06 07:10:41;;;;;;;67.87;62.60;;;;;;;10.60;100.00;100399.59;1995154;71;32759;-74
2022/02/06 07:16:26;;;;;;;70.13;64.70;;;;;;;10.58;100.00;100388.50;1988365;71;33638;-74
2022/02/06 07:22:13;;;;;;;75.60;70.30;;;;;;;10.63;100.00;100377.34;2014542;71;33372;-74
2022/02/06 07:27:56;;;;;;;74.63;69.07;;;;;;;10.64;100.00;100364.55;2014521;71;32982;-70
2022/02/06 07:33:41;;;;;;;76.60;70.97;;;;;;;10.66;100.00;100365.06;2014589;71;32841;-74
2022/02/06 07:39:25;;;;;;;75.40;70.20;;;;;;;10.71;100.00;100347.51;2006303;71;33341;-74
2022/02/06 07:45:12;;;;;;;74.30;69.10;;;;;;;10.70;100.00;100355.56;2014630;71;32835;-70
2022/02/06 07:50:57;;;;;;;75.97;70.67;;;;;;;10.66;100.00;100361.45;1995000;71;32900;-74
2022/02/06 07:56:45;;;;;;;72.77;67.23;;;;;;;10.65;100.00;100358.44;1994523;71;32920;-70
2022/02/06 08:02:30;;;;;;;69.53;64.27;;;;;;;10.69;100.00;100365.05;1997893;71;32792;-72
2022/02/06 08:08:15;;;;;;;72.60;67.20;;;;;;;10.65;100.00;100355.66;2012613;71;32863;-70
2022/02/06 08:14:00;;;;;;;70.23;65.23;;;;;;;10.61;100.00;100362.94;2002249;71;33327;-72
2022/02/06 08:19:44;;;;;;;68.97;63.90;;;;;;;10.62;100.00;100375.67;1991278;70;32802;-74
2022/02/06 08:25:29;;;;;;;66.73;61.70;;;;;;;10.68;100.00;100373.11;2005732;70;33273;-74
2022/02/06 08:31:13;;;;;;;63.50;58.33;;;;;;;10.74;100.00;100374.71;2005621;71;32847;-74
2022/02/06 08:36:59;;;;;;;64.13;59.07;;;;;;;10.80;100.00;100379.88;2000008;71;33333;-75
2022/02/06 08:42:46;;;;;;;65.87;60.80;;;;;;;10.82;100.00;100372.66;1932755;73;33170;-74
2022/02/06 08:48:31;;;;;;;65.30;60.20;;;;;;;10.84;100.00;100375.39;1928046;73;33614;-73
2022/02/06 08:54:31;;;;;;;63.60;58.80;;;;;;;10.89;100.00;100393.94;2000100;71;32978;-74
2022/02/06 09:00:17;;;;;;;61.93;57.63;;;;;;;10.79;100.00;100400.45;2016513;71;30914;-75
2022/02/06 09:06:11;;;;;;;61.77;57.17;;;;;;;10.75;100.00;100402.73;1927689;73;33192;-73
2022/02/06 09:12:03;;;;;;;60.13;55.93;;;;;;;10.76;100.00;100430.22;2001207;71;33375;-73
2022/02/06 09:17:48;;;;;;;58.37;54.43;;;;;;;10.80;100.00;100441.00;1927103;74;33176;-74
2022/02/06 09:23:49;;;;;;;59.90;55.80;;;;;;;11.09;100.00;100446.46;1991509;71;32794;-72
2022/02/06 09:29:42;;;;;;;59.33;55.53;;;;;;;11.19;100.00;100447.72;1927588;73;32976;-73
2022/02/06 09:35:19;;;;;;;60.07;56.27;;;;;;;11.04;100.00;100458.23;2009057;71;32581;-76
2022/02/06 09:40:55;;;;;;;58.13;54.30;;;;;;;10.79;100.00;100468.52;2009226;71;32429;-76
2022/02/06 09:46:47;;;;;;;53.73;50.53;;;;;;;10.58;100.00;100495.42;1934174;73;33633;-75
2022/02/06 09:52:38;;;;;;;52.03;49.13;;;;;;;10.64;100.00;100500.64;1922731;73;30978;-73
2022/02/06 10:04:41;;;;;;;49.50;46.80;;;;;;;10.70;100.00;100513.34;1959289;72;32919;-76
2022/02/06 10:10:28;;;;;;;46.83;44.40;;;;;;;10.69;100.00;100517.27;1993835;71;33360;-74
2022/02/06 10:19:20;;;;;;;49.70;47.30;;;;;;;10.72;100.00;100495.83;2049342;69;33239;-73
2022/02/06 10:21:50;;;;;;;49.80;47.40;;;;;;;10.84;100.00;100548.20;1960916;73;26247;-77
2022/02/06 10:24:28;;;;;;;51.03;48.47;;;;;;;10.86;100.00;100543.20;1945934;73;26270;-73
2022/02/06 10:27:17;;;;;;;49.13;46.63;;;;;;;10.81;100.00;100532.96;1960490;73;26278;-76
2022/02/06 10:29:43;;;;;;;53.50;50.90;;;;;;;10.82;100.00;100528.23;1941592;72;26292;-77
2022/02/06 10:32:30;;;;;;;48.40;45.90;;;;;;;10.81;100.00;100534.91;1948734;73;26216;-72
2022/02/06 10:35:12;;;;;;;48.93;46.43;;;;;;;10.92;100.00;100540.61;1992603;71;26197;-77
2022/02/06 10:37:45;;;;;;;49.20;46.80;;;;;;;10.98;100.00;100551.94;1956205;73;26219;-73
2022/02/06 10:43:34;;;;;;;44.37;42.37;;;;;;;11.06;100.00;100559.63;1927649;73;33005;-74
2022/02/06 10:49:24;;;;;;;44.63;42.43;;;;;;;11.14;100.00;100545.08;2010735;71;32927;-73
2022/02/06 10:55:14;;;;;;;43.80;41.80;;;;;;;11.18;100.00;100571.72;2009133;71;32778;-73
2022/02/06 11:01:25;;;;;;;45.13;42.97;;;;;;;11.20;100.00;100575.05;2001743;71;32780;-74
2022/02/06 11:07:21;;;;;;;45.93;43.77;;;;;;;11.04;100.00;100567.42;2002054;71;32785;-76
2022/02/06 11:13:15;;;;;;;48.43;46.13;;;;;;;11.09;100.00;100559.03;2010323;71;32952;-73
2022/02/06 11:19:07;;;;;;;52.17;49.67;;;;;;;11.11;100.00;100577.64;2014670;71;32929;-77
2022/02/06 11:24:51;;;;;;;48.50;46.10;;;;;;;11.15;100.00;100568.98;2006798;71;33526;-73
2022/02/06 11:30:50;;;;;;;45.77;43.37;;;;;;;11.20;100.00;100574.48;2005915;71;32932;-74
2022/02/06 11:49:13;;;;;;;48.90;46.40;;;;;;;11.07;100.00;100601.59;2015951;71;32827;-76
2022/02/06 11:55:11;;;;;;;46.23;43.70;;;;;;;11.11;100.00;100614.34;1949308;72;33374;-71
2022/02/06 12:04:47;;;;;;;48.67;46.07;;;;;;;11.45;100.00;100613.66;2056514;69;33286;-77
2022/02/06 12:11:20;;;;;;;53.13;50.37;;;;;;;11.32;100.00;100581.01;1995595;71;32936;-77
2022/02/06 12:17:24;;;;;;;51.60;49.00;;;;;;;11.37;100.00;100583.17;1914688;73;32937;-72
2022/02/06 12:23:44;;;;;;;51.80;49.20;;;;;;;11.37;100.00;100551.19;1939097;73;33070;-77
2022/02/06 12:29:59;;;;;;;51.50;48.60;;;;;;;11.34;100.00;100548.98;2010743;71;32865;-73
2022/02/06 12:42:02;;;;;;;46.87;44.37;;;;;;;11.41;100.00;100566.16;1996793;71;32993;-72
2022/02/06 12:47:49;;;;;;;44.43;41.93;;;;;;;11.43;100.00;100547.77;1939368;73;33085;-76
2022/02/06 12:53:38;;;;;;;45.73;43.10;;;;;;;11.51;100.00;100533.19;1996074;71;32859;-75
2022/02/06 12:59:24;;;;;;;39.73;37.53;;;;;;;11.48;100.00;100509.32;1993887;71;32837;-76
2022/02/06 13:05:12;;;;;;;39.60;37.00;;;;;;;11.64;100.00;100526.88;2012278;70;32899;-76
2022/02/06 13:11:06;;;;;;;42.93;40.50;;;;;;;11.64;100.00;100530.22;2008461;71;32956;-72
2022/02/06 13:17:08;;;;;;;37.13;34.80;;;;;;;11.75;100.00;100527.61;1999429;71;33394;-73
2022/02/06 13:22:56;;;;;;;32.87;31.03;;;;;;;11.71;100.00;100532.92;1939067;73;32954;-73
2022/02/06 13:28:55;;;;;;;33.63;31.80;;;;;;;11.84;100.00;100550.29;2015997;71;32808;-77
2022/02/06 13:34:48;;;;;;;33.10;31.23;;;;;;;11.83;100.00;100530.54;2003238;71;33384;-77
2022/02/06 13:40:32;;;;;;;30.30;28.53;;;;;;;12.05;100.00;100533.27;2002315;70;33299;-74
2022/02/06 13:46:22;;;;;;;27.80;25.83;;;;;;;12.12;100.00;100510.03;1994380;71;32845;-76
2022/02/06 13:52:17;;;;;;;28.37;26.77;;;;;;;11.99;100.00;100493.55;2011711;71;33560;-75
2022/02/06 13:58:14;;;;;;;28.63;27.03;;;;;;;11.98;100.00;100486.91;2011942;71;33593;-74
2022/02/06 14:04:27;;;;;;;26.70;25.20;;;;;;;12.18;100.00;100497.70;1967304;71;33036;-78
2022/02/06 14:10:29;;;;;;;29.17;27.40;;;;;;;12.13;100.00;100527.01;2012514;71;32806;-77
2022/02/06 14:16:19;;;;;;;27.20;25.80;;;;;;;11.98;100.00;100554.52;2015979;71;33346;-74
2022/02/06 14:22:35;;;;;;;27.27;26.03;;;;;;;11.90;100.00;100544.06;1972080;72;33073;-75
2022/02/06 14:28:23;;;;;;;31.67;30.07;;;;;;;11.56;100.00;100548.98;1993304;71;32747;-76
2022/02/06 14:34:17;;;;;;;38.40;36.37;;;;;;;11.31;100.00;100551.54;2017689;71;32813;-74
2022/02/06 14:40:33;;;;;;;40.73;38.63;;;;;;;11.40;100.00;100538.63;1932787;73;32600;-76
2022/02/06 14:46:13;;;;;;;44.73;42.30;;;;;;;11.29;100.00;100574.66;2008659;71;33434;-82
2022/02/06 14:51:59;;;;;;;45.20;42.80;;;;;;;10.97;100.00;100560.01;2010882;71;32780;-81
2022/02/06 14:57:44;;;;;;;44.27;41.73;;;;;;;11.06;100.00;100560.19;1994408;71;33597;-80
2022/02/06 15:03:30;;;;;;;37.57;35.47;;;;;;;11.25;100.00;100573.59;1980698;71;32851;-77
2022/02/06 15:09:15;;;;;;;41.80;39.53;;;;;;;11.27;100.00;100547.70;1996679;71;32839;-82
2022/02/06 15:15:01;;;;;;;43.00;40.70;;;;;;;11.16;100.00;100580.38;1991361;71;32763;-81
2022/02/06 15:20:46;;;;;;;46.60;44.20;;;;;;;11.08;100.00;100585.75;2006722;71;32952;-76
2022/02/06 15:26:30;;;;;;;53.00;50.10;;;;;;;11.10;100.00;100577.93;2014678;71;32875;-81
2022/02/06 15:32:18;;;;;;;56.50;53.33;;;;;;;10.96;100.00;100586.97;2000008;70;32812;-81
2022/02/06 15:38:04;;;;;;;57.33;54.07;;;;;;;11.01;100.00;100601.38;2017961;71;33262;-80
2022/02/06 15:43:48;;;;;;;58.10;54.90;;;;;;;11.06;100.00;100600.48;2014283;71;33322;-80
2022/02/06 15:49:34;;;;;;;59.10;55.70;;;;;;;11.03;100.00;100590.80;2005437;71;32802;-82
2022/02/06 15:55:21;;;;;;;60.63;57.03;;;;;;;11.13;100.00;100589.84;2012923;71;33428;-75
2022/02/06 16:01:06;;;;;;;59.67;55.80;;;;;;;10.87;100.00;100615.12;2012749;71;33316;-75
2022/02/06 16:06:53;;;;;;;59.47;55.73;;;;;;;10.81;100.00;100632.98;2010790;71;32913;-77
2022/02/06 16:12:38;;;;;;;57.23;53.33;;;;;;;10.70;100.00;100623.63;2010917;71;32815;-76
2022/02/06 16:18:25;;;;;;;58.60;54.80;;;;;;;10.71;100.00;100640.56;2011493;71;32750;-73
2022/02/06 16:24:12;;;;;;;58.70;54.90;;;;;;;10.61;100.00;100644.25;2009026;71;32750;-75
2022/02/06 16:29:57;;;;;;;59.40;55.90;;;;;;;10.62;100.00;100638.14;2014203;71;33373;-71
2022/02/06 16:35:42;;;;;;;60.03;56.47;;;;;;;10.57;100.00;100640.98;2012809;71;32801;-78
2022/02/06 16:41:28;;;;;;;60.00;56.70;;;;;;;10.57;100.00;100654.28;2006848;70;32888;-82
2022/02/06 16:47:14;;;;;;;56.47;53.27;;;;;;;10.48;100.00;100658.83;2004790;71;32844;-77
2022/02/06 16:52:59;;;;;;;54.53;51.63;;;;;;;10.37;100.00;100658.61;2008467;71;32807;-77
2022/02/06 16:58:59;;;;;;;52.33;49.43;;;;;;;10.28;100.00;100671.44;2014079;71;33282;-83
2022/02/06 17:04:44;;;;;;;50.40;47.77;;;;;;;10.33;100.00;100681.13;2059486;69;32740;-78
2022/02/06 17:10:32;;;;;;;53.20;50.30;;;;;;;10.36;100.00;100690.27;2012253;71;32892;-78
2022/02/06 17:16:19;;;;;;;53.60;50.87;;;;;;;10.20;100.00;100715.91;2010963;71;33300;-76
2022/02/06 17:22:04;;;;;;;52.77;50.17;;;;;;;10.18;100.00;100733.42;1990908;71;33278;-76
2022/02/06 17:27:51;;;;;;;55.37;52.47;;;;;;;10.26;100.00;100750.03;1997730;70;33381;-76
2022/02/06 17:33:35;;;;;;;50.90;48.10;;;;;;;10.32;100.00;100775.24;2013763;71;32891;-73
2022/02/06 17:39:21;;;;;;;59.10;55.97;;;;;;;10.24;100.00;100789.72;1994334;71;32842;-81
2022/02/06 17:45:15;;;;;;;57.37;54.27;;;;;;;9.95;100.00;100802.02;2012506;71;33044;-83
2022/02/06 17:51:00;;;;;;;58.77;55.57;;;;;;;9.78;100.00;100802.34;2016681;71;32889;-77
2022/02/06 17:56:45;;;;;;;53.30;50.50;;;;;;;9.68;100.00;100826.48;2016200;71;32903;-79
2022/02/06 18:02:30;;;;;;;49.10;46.50;;;;;;;9.65;100.00;100859.78;2015782;70;33330;-75
2022/02/06 18:08:15;;;;;;;51.13;48.43;;;;;;;9.60;100.00;100857.00;2012302;71;32838;-75
2022/02/06 18:13:59;;;;;;;49.87;47.17;;;;;;;9.51;100.00;100866.98;2018417;71;33332;-73
2022/02/06 18:19:44;;;;;;;49.17;46.67;;;;;;;9.46;100.00;100885.01;2007713;71;32822;-73
2022/02/06 18:25:28;;;;;;;48.30;45.80;;;;;;;9.49;100.00;100894.18;2011525;71;32859;-72
2022/02/06 18:31:12;;;;;;;48.20;45.50;;;;;;;9.46;100.00;100912.19;1991389;71;32909;-72
2022/02/06 18:37:00;;;;;;;47.20;44.60;;;;;;;9.54;100.00;100939.94;2017574;71;33372;-74
2022/02/06 18:42:45;;;;;;;46.97;44.53;;;;;;;9.62;100.00;100951.03;2015901;71;32983;-74
2022/02/06 18:48:31;;;;;;;41.40;39.20;;;;;;;9.50;100.00;100977.62;2013219;71;32887;-75
2022/02/06 18:54:22;;;;;;;43.83;41.37;;;;;;;9.44;100.00;100977.34;2014762;71;33599;-77
2022/02/06 19:00:02;;;;;;;43.13;40.97;;;;;;;9.31;100.00;101001.44;2017719;71;33249;-70
2022/02/06 19:05:46;;;;;;;41.83;39.73;;;;;;;9.22;100.00;101004.45;2012229;71;33248;-74
2022/02/06 19:11:30;;;;;;;37.83;35.80;;;;;;;9.10;100.00;101027.70;2008570;71;32882;-71
2022/02/06 19:17:17;;;;;;;35.40;33.50;;;;;;;9.06;100.00;101038.21;2007503;71;32864;-72
2022/02/06 19:23:01;;;;;;;30.77;29.10;;;;;;;9.12;100.00;101061.50;2003248;71;32828;-74
2022/02/06 19:28:47;;;;;;;27.67;26.17;;;;;;;9.06;100.00;101075.62;2004583;71;32814;-72
2022/02/06 19:34:35;;;;;;;27.63;26.07;;;;;;;9.10;100.00;101080.91;2014263;71;32878;-74
2022/02/06 19:40:19;;;;;;;31.03;29.23;;;;;;;9.07;100.00;101100.84;2010276;71;33499;-72
2022/02/06 19:46:06;;;;;;;32.00;30.10;;;;;;;8.96;100.00;101129.58;2010912;71;32758;-73
2022/02/06 19:51:52;;;;;;;37.23;35.13;;;;;;;8.85;100.00;101143.09;2010481;71;32820;-75
2022/02/06 19:57:38;;;;;;;36.77;34.37;;;;;;;8.84;100.00;101163.58;1997520;71;32865;-72
2022/02/06 20:03:26;;;;;;;37.20;35.00;;;;;;;8.75;100.00;101188.16;2006726;71;32825;-76
2022/02/06 20:09:11;;;;;;;39.63;37.30;;;;;;;8.81;100.00;101209.82;1990702;71;32803;-71
2022/02/06 20:14:57;;;;;;;41.77;39.43;;;;;;;8.77;100.00;101209.49;2010670;71;33327;-79
2022/02/06 20:20:42;;;;;;;46.63;44.03;;;;;;;8.76;100.00;101235.55;1994424;71;32837;-73
2022/02/06 20:26:27;;;;;;;39.70;37.33;;;;;;;8.58;100.00;101245.06;1994564;71;32844;-74
2022/02/06 20:32:12;;;;;;;37.27;35.27;;;;;;;8.57;100.00;101261.93;2016489;71;32820;-72
2022/02/06 20:37:58;;;;;;;36.70;34.50;;;;;;;8.53;100.00;101277.40;2003776;71;32748;-70
2022/02/06 20:43:44;;;;;;;41.87;39.70;;;;;;;8.43;100.00;101297.50;2005826;71;32777;-69
2022/02/06 20:49:29;;;;;;;38.17;35.97;;;;;;;8.33;100.00;101310.41;2014375;71;32889;-72
2022/02/06 20:55:13;;;;;;;42.00;39.37;;;;;;;8.24;100.00;101329.36;2014445;71;32834;-71
2022/02/06 21:00:58;;;;;;;39.00;36.70;;;;;;;8.19;100.00;101332.91;2005230;71;33344;-72
2022/02/06 21:06:42;;;;;;;36.40;34.23;;;;;;;8.18;100.00;101351.14;2003651;71;32835;-71
2022/02/06 21:12:31;;;;;;;34.70;32.50;;;;;;;8.22;100.00;101367.52;1997005;71;33225;-69
2022/02/06 21:18:13;;;;;;;34.03;31.93;;;;;;;8.18;100.00;101375.50;2016435;71;32826;-69
2022/02/06 21:23:59;;;;;;;34.80;32.67;;;;;;;8.16;100.00;101405.92;2009455;71;32946;-76
2022/02/06 21:29:43;;;;;;;36.03;33.93;;;;;;;8.09;100.00;101430.98;2013043;71;33037;-73
2022/02/06 21:35:27;;;;;;;31.00;28.90;;;;;;;8.08;100.00;101461.16;2012687;71;32798;-71
2022/02/06 21:41:12;;;;;;;31.80;29.70;;;;;;;7.97;100.00;101473.14;2010773;71;33351;-72
2022/02/06 21:46:57;;;;;;;31.73;29.60;;;;;;;7.93;100.00;101501.02;2005331;71;32799;-69
2022/02/06 21:52:43;;;;;;;31.53;29.37;;;;;;;7.88;100.00;101513.91;2012379;71;33026;-72
2022/02/06 21:58:28;;;;;;;30.10;28.20;;;;;;;7.81;100.00;101523.77;2012614;71;33001;-71
2022/02/06 22:04:12;;;;;;;33.13;31.13;;;;;;;7.69;100.00;101535.45;1979392;72;33461;-72
2022/02/06 22:10:04;;;;;;;33.13;30.83;;;;;;;7.65;100.00;101543.41;1996581;71;33231;-71
2022/02/06 22:33:51;;;;;;;37.33;34.77;;;;;;;7.39;100.00;101594.31;1997674;71;32838;-69
2022/02/06 22:39:36;;;;;;;38.37;35.97;;;;;;;7.18;100.00;101610.48;1994575;70;32754;-70
2022/02/06 22:45:21;;;;;;;40.43;37.93;;;;;;;7.24;100.00;101607.27;2009560;71;32848;-69
2022/02/06 22:51:06;;;;;;;42.00;38.97;;;;;;;7.14;100.00;101605.16;2005411;71;32959;-70
2022/02/06 22:56:50;;;;;;;39.57;37.07;;;;;;;7.17;100.00;101637.81;2009303;71;33284;-71
2022/02/06 23:02:36;;;;;;;43.17;40.03;;;;;;;7.19;100.00;101634.25;2014425;71;32944;-73
2022/02/06 23:08:22;;;;;;;39.10;36.17;;;;;;;7.12;100.00;101633.55;1990940;71;32876;-70
2022/02/06 23:14:07;;;;;;;40.00;37.20;;;;;;;7.14;100.00;101640.23;1999973;71;32943;-69
2022/02/06 23:19:51;;;;;;;39.37;36.60;;;;;;;7.19;100.00;101661.03;2013168;71;33394;-70
2022/02/06 23:25:35;;;;;;;39.20;36.40;;;;;;;7.20;100.00;101679.30;1995162;71;33261;-71
2022/02/06 23:31:20;;;;;;;38.17;35.50;;;;;;;7.30;100.00;101698.34;2018134;71;32907;-72
2022/02/06 23:37:05;;;;;;;39.47;36.57;;;;;;;7.27;100.00;101718.14;1939616;73;32969;-70
2022/02/06 23:42:50;;;;;;;35.50;33.30;;;;;;;7.18;100.00;101747.80;1999860;70;33410;-71
2022/02/06 23:48:38;;;;;;;38.33;35.50;;;;;;;7.19;100.00;101777.92;2012549;71;32806;-69
2022/02/06 23:54:30;;;;;;;40.83;37.97;;;;;;;7.15;100.00;101789.16;2003881;71;33376;-71
